Time;durP1;ratioP1;P1;durP2;ratioP2;P2;SDS_P1;SDS_P2;PMS_P1;PMS_P2;Temp;Humidity;BMP_temperature;BMP_pressure;BME280_temperature;BME280_humidity;BME280_pressure;Samples;Min_cycle;Max_cycle;Signal;HPM_P1;HPM_P2
2022/03/17 00:01:05;;;;;;;;;;;;;;;;;;5140922;27;19960;-75
2022/03/17 00:03:31;;;;;;;;;;;;;;;;;;5140045;27;19908;-74
2022/03/17 00:05:57;;;;;;;;;;;;;;;;;;5140144;27;19908;-75
2022/03/17 00:08:24;;;;;;;;;;;;;;;;;;5140594;27;20209;-74
2022/03/17 00:10:50;;;;;;;;;;;;;;;;;;5141286;27;19916;-74
2022/03/17 00:13:15;;;;;;;;;;;;;;;;;;5121762;27;20214;-74
2022/03/17 00:15:41;;;;;;;;;;;;;;;;;;5105254;27;19960;-74
2022/03/17 00:18:07;;;;;;;;;;;;;;;;;;5140278;27;20285;-74
2022/03/17 00:20:33;;;;;;;;;;;;;;;;;;5140130;27;19989;-74
2022/03/17 00:22:59;;;;;;;;;;;;;;;;;;5140252;27;20015;-74
2022/03/17 00:25:25;;;;;;;;;;;;;;;;;;5140320;27;20320;-74
2022/03/17 00:27:51;;;;;;;;;;;;;;;;;;5139641;27;19908;-74
2022/03/17 00:30:17;;;;;;;;;;;;;;;;;;5139773;27;19920;-73
2022/03/17 00:32:42;;;;;;;;;;;;;;;;;;5121846;27;20019;-75
2022/03/17 00:37:52;;;;;;;;;;;;;;;;;;5139455;27;19907;-75
2022/03/17 00:40:18;;;;;;;;;;;;;;;;;;5120716;27;19925;-75
2022/03/17 00:42:44;;;;;;;;;;;;;;;;;;5139754;27;19914;-75
2022/03/17 00:45:10;;;;;;;;;;;;;;;;;;5139340;27;19907;-74
2022/03/17 00:47:35;;;;;;;;;;;;;;;;;;5121376;27;19999;-75
2022/03/17 00:50:01;;;;;;;;;;;;;;;;;;5139665;27;19916;-74
2022/03/17 00:52:27;;;;;;;;;;;;;;;;;;5139598;27;19942;-74
2022/03/17 00:54:53;;;;;;;;;;;;;;;;;;5139006;27;19907;-74
2022/03/17 00:57:18;;;;;;;;;;;;;;;;;;5143234;27;20305;-74
2022/03/17 00:59:44;;;;;;;;;;;;;;;;;;5140287;27;19908;-74
2022/03/17 01:02:10;;;;;;;;;;;;;;;;;;5139533;27;19999;-74
2022/03/17 01:04:35;;;;;;;;;;;;;;;;;;5121082;27;19961;-74
2022/03/17 01:07:01;;;;;;;;;;;;;;;;;;5138755;27;19907;-74
2022/03/17 01:09:30;;;;;;;;;;;;;;;;;;5138794;27;19907;-74
2022/03/17 01:11:55;;;;;;;;;;;;;;;;;;5120163;27;20213;-74
2022/03/17 01:14:21;;;;;;;;;;;;;;;;;;5120272;27;19907;-74
2022/03/17 01:16:47;;;;;;;;;;;;;;;;;;5138879;27;19911;-75
2022/03/17 01:19:13;;;;;;;;;;;;;;;;;;5138798;27;19911;-75
2022/03/17 01:21:38;;;;;;;;;;;;;;;;;;5120079;27;20228;-74
2022/03/17 01:24:04;;;;;;;;;;;;;;;;;;5102943;27;19907;-74
2022/03/17 01:26:30;;;;;;;;;;;;;;;;;;5139349;27;19907;-73
2022/03/17 01:28:56;;;;;;;;;;;;;;;;;;5119060;27;19966;-73
2022/03/17 01:31:24;;;;;;;;;;;;;;;;;;5137679;27;20300;-75
2022/03/17 01:33:49;;;;;;;;;;;;;;;;;;5136802;27;19907;-74
2022/03/17 01:36:15;;;;;;;;;;;;;;;;;;5136529;27;20089;-75
2022/03/17 01:38:41;;;;;;;;;;;;;;;;;;5137609;27;19907;-75
2022/03/17 01:41:06;;;;;;;;;;;;;;;;;;5137465;27;20251;-76
2022/03/17 01:43:32;;;;;;;;;;;;;;;;;;5136955;27;19908;-74
2022/03/17 01:45:58;;;;;;;;;;;;;;;;;;5119783;28;19930;-73
2022/03/17 01:48:24;;;;;;;;;;;;;;;;;;5137682;27;19908;-74
2022/03/17 01:50:49;;;;;;;;;;;;;;;;;;5137374;27;19923;-75
2022/03/17 01:53:15;;;;;;;;;;;;;;;;;;5139461;28;19911;-75
2022/03/17 01:55:41;;;;;;;;;;;;;;;;;;5103256;28;19916;-73
2022/03/17 01:58:06;;;;;;;;;;;;;;;;;;5138563;28;20066;-74
2022/03/17 02:00:32;;;;;;;;;;;;;;;;;;5119697;28;19950;-73
2022/03/17 02:02:58;;;;;;;;;;;;;;;;;;5119155;28;19908;-74
2022/03/17 02:05:24;;;;;;;;;;;;;;;;;;5137155;28;20296;-75
2022/03/17 02:07:53;;;;;;;;;;;;;;;;;;5119316;28;19976;-75
2022/03/17 02:10:18;;;;;;;;;;;;;;;;;;5137505;28;19915;-76
2022/03/17 02:15:28;;;;;;;;;;;;;;;;;;5137323;28;20287;-74
2022/03/17 02:17:54;;;;;;;;;;;;;;;;;;5139857;28;19950;-75
2022/03/17 02:20:20;;;;;;;;;;;;;;;;;;5120532;28;19907;-75
2022/03/17 02:22:46;;;;;;;;;;;;;;;;;;5119469;28;19907;-76
2022/03/17 02:27:56;;;;;;;;;;;;;;;;;;5136834;28;19919;-75
2022/03/17 02:30:21;;;;;;;;;;;;;;;;;;5123878;28;19915;-76
2022/03/17 02:32:47;;;;;;;;;;;;;;;;;;5118735;28;19907;-74
2022/03/17 02:35:13;;;;;;;;;;;;;;;;;;5117228;28;19955;-76
2022/03/17 02:37:39;;;;;;;;;;;;;;;;;;5136535;28;19911;-76
2022/03/17 02:40:04;;;;;;;;;;;;;;;;;;5136353;28;20091;-74
2022/03/17 02:42:30;;;;;;;;;;;;;;;;;;5136566;28;19908;-76
2022/03/17 02:44:56;;;;;;;;;;;;;;;;;;5136402;28;19904;-75
2022/03/17 02:47:21;;;;;;;;;;;;;;;;;;5136440;28;19908;-76
2022/03/17 02:49:47;;;;;;;;;;;;;;;;;;5117673;28;19915;-75
2022/03/17 02:52:13;;;;;;;;;;;;;;;;;;5099801;28;19918;-75
2022/03/17 02:54:39;;;;;;;;;;;;;;;;;;5137037;28;19947;-76
2022/03/17 02:57:04;;;;;;;;;;;;;;;;;;5116723;28;19911;-76
2022/03/17 02:59:30;;;;;;;;;;;;;;;;;;5133670;28;19907;-76
2022/03/17 03:01:56;;;;;;;;;;;;;;;;;;5134851;27;19923;-75
2022/03/17 03:04:21;;;;;;;;;;;;;;;;;;5138161;27;19907;-75
2022/03/17 03:06:47;;;;;;;;;;;;;;;;;;5138795;27;19908;-75
2022/03/17 03:09:13;;;;;;;;;;;;;;;;;;5103776;27;19914;-75
2022/03/17 03:11:39;;;;;;;;;;;;;;;;;;5121261;27;19920;-76
2022/03/17 03:14:09;;;;;;;;;;;;;;;;;;5122482;27;19922;-75
2022/03/17 03:16:35;;;;;;;;;;;;;;;;;;5122519;27;19907;-74
2022/03/17 03:19:02;;;;;;;;;;;;;;;;;;5123598;27;19908;-77
2022/03/17 03:21:28;;;;;;;;;;;;;;;;;;5128297;27;20240;-75
2022/03/17 03:23:54;;;;;;;;;;;;;;;;;;5146904;27;19907;-77
2022/03/17 03:26:20;;;;;;;;;;;;;;;;;;5127443;27;19908;-76
2022/03/17 03:28:47;;;;;;;;;;;;;;;;;;5109895;27;20297;-75
2022/03/17 03:31:13;;;;;;;;;;;;;;;;;;5126110;27;20002;-75
2022/03/17 03:33:39;;;;;;;;;;;;;;;;;;5123958;27;19951;-75
2022/03/17 03:38:50;;;;;;;;;;;;;;;;;;5125099;27;19908;-75
2022/03/17 03:41:16;;;;;;;;;;;;;;;;;;5140843;27;19918;-75
2022/03/17 03:43:41;;;;;;;;;;;;;;;;;;5139989;27;19908;-73
2022/03/17 03:46:07;;;;;;;;;;;;;;;;;;5122232;27;19926;-74
2022/03/17 03:48:33;;;;;;;;;;;;;;;;;;5122487;27;19915;-72
2022/03/17 03:50:59;;;;;;;;;;;;;;;;;;5142307;27;20230;-74
2022/03/17 03:54:12;;;;;;;;;;;;;;;;;;5121820;27;19934;-74
2022/03/17 03:56:11;;;;;;;;;;;;;;;;;;5124115;27;19907;-74
2022/03/17 03:58:36;;;;;;;;;;;;;;;;;;5122458;27;19911;-75
2022/03/17 04:01:02;;;;;;;;;;;;;;;;;;5141522;27;19908;-74
2022/03/17 04:03:28;;;;;;;;;;;;;;;;;;5121625;27;19907;-73
2022/03/17 04:05:54;;;;;;;;;;;;;;;;;;5140187;27;20225;-74
2022/03/17 04:08:21;;;;;;;;;;;;;;;;;;5121592;27;19915;-74
2022/03/17 04:10:46;;;;;;;;;;;;;;;;;;5121179;27;19927;-74
2022/03/17 04:13:14;;;;;;;;;;;;;;;;;;5104031;27;19907;-74
2022/03/17 04:15:40;;;;;;;;;;;;;;;;;;5139068;27;19907;-75
2022/03/17 04:18:06;;;;;;;;;;;;;;;;;;5140283;27;20080;-74
2022/03/17 04:20:34;;;;;;;;;;;;;;;;;;5103654;27;20217;-74
2022/03/17 04:23:00;;;;;;;;;;;;;;;;;;5118786;27;20343;-74
2022/03/17 04:25:26;;;;;;;;;;;;;;;;;;5136421;27;20041;-74
2022/03/17 04:27:51;;;;;;;;;;;;;;;;;;5137190;27;20305;-75
2022/03/17 04:30:17;;;;;;;;;;;;;;;;;;5100854;27;19942;-75
2022/03/17 04:32:43;;;;;;;;;;;;;;;;;;5117958;27;20109;-75
2022/03/17 04:35:09;;;;;;;;;;;;;;;;;;5118718;27;19982;-75
2022/03/17 04:37:35;;;;;;;;;;;;;;;;;;5118553;27;19907;-75
2022/03/17 04:40:01;;;;;;;;;;;;;;;;;;5104190;27;19903;-76
2022/03/17 04:42:27;;;;;;;;;;;;;;;;;;5119400;27;19908;-75
2022/03/17 04:44:55;;;;;;;;;;;;;;;;;;5121161;27;19932;-75
2022/03/17 04:47:21;;;;;;;;;;;;;;;;;;5120844;27;20000;-76
2022/03/17 04:49:47;;;;;;;;;;;;;;;;;;5121889;27;19991;-77
2022/03/17 04:55:01;;;;;;;;;;;;;;;;;;5108090;27;20231;-76
2022/03/17 04:57:27;;;;;;;;;;;;;;;;;;5135774;27;19915;-75
2022/03/17 04:59:56;;;;;;;;;;;;;;;;;;5119143;27;19915;-75
2022/03/17 05:02:22;;;;;;;;;;;;;;;;;;5102165;27;20178;-76
2022/03/17 05:04:48;;;;;;;;;;;;;;;;;;5136213;27;19907;-77
2022/03/17 05:07:14;;;;;;;;;;;;;;;;;;5117620;27;19956;-76
2022/03/17 05:09:39;;;;;;;;;;;;;;;;;;5137078;27;19923;-77
2022/03/17 05:12:05;;;;;;;;;;;;;;;;;;5137790;27;19911;-75
2022/03/17 05:14:31;;;;;;;;;;;;;;;;;;5137228;27;19951;-75
2022/03/17 05:16:57;;;;;;;;;;;;;;;;;;5137919;27;20258;-76
2022/03/17 05:19:23;;;;;;;;;;;;;;;;;;5120374;27;20018;-77
2022/03/17 05:21:48;;;;;;;;;;;;;;;;;;5104347;27;19939;-77
2022/03/17 05:24:14;;;;;;;;;;;;;;;;;;5138857;27;19962;-75
2022/03/17 05:26:45;;;;;;;;;;;;;;;;;;5102431;27;19907;-75
2022/03/17 05:29:14;;;;;;;;;;;;;;;;;;5121369;27;19919;-76
2022/03/17 05:31:40;;;;;;;;;;;;;;;;;;5138824;27;20351;-75
2022/03/17 05:34:06;;;;;;;;;;;;;;;;;;5119776;27;19966;-75
2022/03/17 05:36:33;;;;;;;;;;;;;;;;;;5137030;27;20202;-76
2022/03/17 05:39:01;;;;;;;;;;;;;;;;;;5120763;27;20103;-76
2022/03/17 05:41:27;;;;;;;;;;;;;;;;;;5118416;27;19911;-77
2022/03/17 05:43:53;;;;;;;;;;;;;;;;;;5136433;27;19998;-76
2022/03/17 05:46:22;;;;;;;;;;;;;;;;;;5136827;27;20010;-75
2022/03/17 05:48:48;;;;;;;;;;;;;;;;;;5136347;27;19907;-76
2022/03/17 05:51:14;;;;;;;;;;;;;;;;;;5136442;27;20072;-76
2022/03/17 05:53:40;;;;;;;;;;;;;;;;;;5136056;27;19988;-75
2022/03/17 05:56:09;;;;;;;;;;;;;;;;;;5118566;28;20251;-76
2022/03/17 05:58:35;;;;;;;;;;;;;;;;;;5103399;28;19934;-76
2022/03/17 06:01:05;;;;;;;;;;;;;;;;;;5101103;28;20002;-76
2022/03/17 06:03:30;;;;;;;;;;;;;;;;;;5136359;28;19991;-75
2022/03/17 06:05:57;;;;;;;;;;;;;;;;;;5116291;28;19960;-77
2022/03/17 06:13:29;;;;;;;;;;;;;;;;;;5163199;22;19973;-74
2022/03/17 06:23:57;;;;;;;;;;;;;;;;;;2932514;22;20035;-74
2022/03/17 06:26:41;;;;;;;;;;;;;;;;;;4280872;22;22798724;-75
2022/03/17 06:34:16;;;;;;;;;;;;;;;;;;3839237;22;19923;-74
2022/03/17 06:36:51;;;;;;;;;;;;;;;;;;5050165;28;19909;-74
2022/03/17 06:39:18;;;;;;;;;;;;;;;;;;5077131;28;20000;-74
2022/03/17 06:41:44;;;;;;;;;;;;;;;;;;5062222;28;20039;-74
2022/03/17 06:44:11;;;;;;;;;;;;;;;;;;5075220;28;19943;-74
2022/03/17 06:46:39;;;;;;;;;;;;;;;;;;5090403;22;19932;-73
2022/03/17 06:49:14;;;;;;;;;;;;;;;;;;5092329;28;19908;-74
2022/03/17 06:51:44;;;;;;;;;;;;;;;;;;5083720;28;19922;-74
2022/03/17 06:54:22;;;;;;;;;;;;;;;;;;5067512;22;19931;-75
2022/03/17 06:57:03;;;;;;;;;;;;;;;;;;5096763;27;19908;-74
2022/03/17 06:59:29;;;;;;;;;;;;;;;;;;5117892;27;20255;-75
2022/03/17 07:02:11;;;;;;;;;;;;;;;;;;5095611;28;20345;-74
2022/03/17 07:04:39;;;;;;;;;;;;;;;;;;5047833;22;19924;-74
2022/03/17 07:07:09;;;;;;;;;;;;;;;;;;5081947;22;19931;-75
2022/03/17 07:09:36;;;;;;;;;;;;;;;;;;5080279;22;20019;-73
2022/03/17 07:12:04;;;;;;;;;;;;;;;;;;4811686;22;20644;-74
2022/03/17 07:14:38;;;;;;;;;;;;;;;;;;5071357;28;19987;-75
2022/03/17 07:17:41;;;;;;;;;;;;;;;;;;5075480;28;20007;-73
2022/03/17 07:20:09;;;;;;;;;;;;;;;;;;5079418;28;19915;-73
2022/03/17 07:22:39;;;;;;;;;;;;;;;;;;5078360;28;19947;-75
2022/03/17 07:25:05;;;;;;;;;;;;;;;;;;5062534;28;19939;-75
2022/03/17 07:27:34;;;;;;;;;;;;;;;;;;5062454;28;20258;-74
2022/03/17 07:30:01;;;;;;;;;;;;;;;;;;5079272;28;19916;-74
2022/03/17 07:32:28;;;;;;;;;;;;;;;;;;5062537;28;19919;-73
2022/03/17 07:34:59;;;;;;;;;;;;;;;;;;5095791;28;19908;-74
2022/03/17 07:37:26;;;;;;;;;;;;;;;;;;5079372;28;20179;-72
2022/03/17 07:39:54;;;;;;;;;;;;;;;;;;5095272;28;19912;-75
2022/03/17 07:42:21;;;;;;;;;;;;;;;;;;5062120;28;19914;-73
2022/03/17 07:44:47;;;;;;;;;;;;;;;;;;5078745;28;19908;-73
2022/03/17 07:47:13;;;;;;;;;;;;;;;;;;5061687;28;19974;-74
2022/03/17 07:49:39;;;;;;;;;;;;;;;;;;5060949;28;19912;-74
2022/03/17 07:52:11;;;;;;;;;;;;;;;;;;5052681;28;20287;-74
2022/03/17 07:54:42;;;;;;;;;;;;;;;;;;5061159;28;19908;-74
2022/03/17 07:57:13;;;;;;;;;;;;;;;;;;5066633;28;19954;-75
2022/03/17 07:59:52;;;;;;;;;;;;;;;;;;4860739;22;6381242;-74
2022/03/17 08:02:23;;;;;;;;;;;;;;;;;;5112663;22;19966;-74
2022/03/17 08:05:16;;;;;;;;;;;;;;;;;;4965868;22;19935;-74
2022/03/17 08:08:09;;;;;;;;;;;;;;;;;;5148987;22;19934;-74
2022/03/17 08:13:09;;;;;;;;;;;;;;;;;;5126675;22;19996;-74
2022/03/17 08:20:54;;;;;;;;;;;;;;;;;;5148701;22;20302;-75
2022/03/17 08:38:21;;;;;;;;;;;;;;;;;;5142900;22;19992;-75
2022/03/17 08:50:59;;;;;;;;;;;;;;;;;;5141932;22;20287;-74
2022/03/17 09:00:54;;;;;;;;;;;;;;;;;;5150786;22;20070;-76
2022/03/17 09:05:58;;;;;;;;;;;;;;;;;;5148586;22;19922;-74
2022/03/17 09:08:39;;;;;;;;;;;;;;;;;;5138406;22;20278;-76
2022/03/17 09:11:24;;;;;;;;;;;;;;;;;;5101088;22;20087;-74
2022/03/17 09:19:05;;;;;;;;;;;;;;;;;;5150426;22;19955;-75
2022/03/17 09:26:32;;;;;;;;;;;;;;;;;;5132538;22;19927;-76
2022/03/17 09:29:12;;;;;;;;;;;;;;;;;;5138881;22;19927;-75
2022/03/17 09:34:18;;;;;;;;;;;;;;;;;;5114069;22;19927;-74
2022/03/17 09:42:28;;;;;;;;;;;;;;;;;;5145785;22;20124;-73
2022/03/17 09:47:52;;;;;;;;;;;;;;;;;;5100111;22;20317;-73
2022/03/17 09:50:25;;;;;;;;;;;;;;;;;;5116327;22;19924;-73
2022/03/17 09:55:29;;;;;;;;;;;;;;;;;;5110129;22;19927;-73
2022/03/17 09:58:38;;;;;;;;;;;;;;;;;;5049864;22;20152;-73
2022/03/17 10:03:55;;;;;;;;;;;;;;;;;;5112257;22;20258;-73
2022/03/17 10:11:59;;;;;;;;;;;;;;;;;;4950104;22;19930;-73
2022/03/17 10:15:50;;;;;;;;;;;;;;;;;;5072732;22;21047;-73
2022/03/17 10:20:59;;;;;;;;;;;;;;;;;;5081794;22;20090;-73
2022/03/17 10:23:37;;;;;;;;;;;;;;;;;;4991538;22;20286;-73
2022/03/17 10:31:20;;;;;;;;;;;;;;;;;;3146154;22;21782;-74
2022/03/17 10:37:02;;;;;;;;;;;;;;;;;;1444551;22;20264;-73
2022/03/17 10:44:55;;;;;;;;;;;;;;;;;;4489034;22;20080;-73
2022/03/17 11:07:55;;;;;;;;;;;;;;;;;;5111864;22;19928;-83
2022/03/17 11:10:22;;;;;;;;;;;;;;;;;;5103287;28;19916;-83
2022/03/17 11:12:47;;;;;;;;;;;;;;;;;;5084733;28;19954;-83
2022/03/17 11:15:13;;;;;;;;;;;;;;;;;;5085678;28;19908;-83
2022/03/17 11:17:39;;;;;;;;;;;;;;;;;;5102545;28;20264;-83
2022/03/17 11:20:05;;;;;;;;;;;;;;;;;;5085990;28;20310;-84
2022/03/17 11:22:32;;;;;;;;;;;;;;;;;;5104831;28;19981;-83
2022/03/17 11:24:58;;;;;;;;;;;;;;;;;;5084065;28;19922;-83
2022/03/17 11:27:24;;;;;;;;;;;;;;;;;;5082968;28;19912;-83
2022/03/17 11:29:50;;;;;;;;;;;;;;;;;;5100506;28;20306;-83
2022/03/17 11:32:16;;;;;;;;;;;;;;;;;;5100216;28;20264;-83
2022/03/17 11:34:42;;;;;;;;;;;;;;;;;;5099737;28;19908;-83
2022/03/17 11:37:08;;;;;;;;;;;;;;;;;;5065531;28;19908;-83
2022/03/17 11:39:34;;;;;;;;;;;;;;;;;;5083092;28;20218;-83
2022/03/17 11:41:59;;;;;;;;;;;;;;;;;;5090537;28;19962;-83
2022/03/17 11:44:25;;;;;;;;;;;;;;;;;;5100719;28;19908;-83
2022/03/17 11:46:52;;;;;;;;;;;;;;;;;;5102258;28;20275;-83
2022/03/17 11:49:18;;;;;;;;;;;;;;;;;;5067923;28;19908;-83
2022/03/17 11:51:44;;;;;;;;;;;;;;;;;;5085101;28;19916;-83
2022/03/17 11:54:10;;;;;;;;;;;;;;;;;;5084397;28;19908;-83
2022/03/17 11:56:35;;;;;;;;;;;;;;;;;;5083920;28;19909;-83
2022/03/17 12:45:59;;;;;;;;;;;;;;;;;;5139697;22;19932;-82
2022/03/17 12:48:27;;;;;;;;;;;;;;;;;;5141799;27;20347;-82
2022/03/17 12:50:53;;;;;;;;;;;;;;;;;;5141869;27;19951;-83
2022/03/17 12:53:19;;;;;;;;;;;;;;;;;;5125854;27;19899;-82
2022/03/17 12:55:45;;;;;;;;;;;;;;;;;;5125678;27;19997;-82
2022/03/17 12:58:11;;;;;;;;;;;;;;;;;;5125020;27;19908;-82
2022/03/17 13:00:37;;;;;;;;;;;;;;;;;;5144333;27;19928;-83
2022/03/17 13:03:03;;;;;;;;;;;;;;;;;;5143795;27;19911;-82
2022/03/17 13:55:38;;;;;;;;;;;;;;;;;;5106714;22;19925;-83
2022/03/17 13:58:04;;;;;;;;;;;;;;;;;;5105171;28;19915;-83
2022/03/17 14:00:30;;;;;;;;;;;;;;;;;;5083025;28;19999;-83
2022/03/17 14:02:55;;;;;;;;;;;;;;;;;;5081368;28;20299;-83
2022/03/17 14:05:24;;;;;;;;;;;;;;;;;;5065152;28;19954;-82
2022/03/17 14:07:50;;;;;;;;;;;;;;;;;;5082734;28;19970;-83
2022/03/17 14:10:16;;;;;;;;;;;;;;;;;;5082624;28;20394;-83
2022/03/17 14:12:41;;;;;;;;;;;;;;;;;;5081764;28;19958;-83
2022/03/17 14:15:07;;;;;;;;;;;;;;;;;;5069070;28;20209;-83
2022/03/17 14:17:34;;;;;;;;;;;;;;;;;;5101218;28;19908;-83
2022/03/17 14:20:00;;;;;;;;;;;;;;;;;;5081858;28;19923;-83
2022/03/17 14:25:10;;;;;;;;;;;;;;;;;;5081454;28;19915;-83
2022/03/17 14:27:36;;;;;;;;;;;;;;;;;;5082048;28;19912;-83
2022/03/17 14:30:01;;;;;;;;;;;;;;;;;;5099648;28;19914;-83
2022/03/17 14:32:27;;;;;;;;;;;;;;;;;;5065835;28;19958;-83
2022/03/17 14:34:53;;;;;;;;;;;;;;;;;;5099800;28;19909;-83
2022/03/17 14:37:19;;;;;;;;;;;;;;;;;;5081671;28;19961;-83
2022/03/17 14:39:45;;;;;;;;;;;;;;;;;;5098733;28;19951;-83
2022/03/17 14:42:14;;;;;;;;;;;;;;;;;;5081420;28;20264;-83
2022/03/17 14:44:39;;;;;;;;;;;;;;;;;;5081676;28;19957;-83
2022/03/17 16:59:25;;;;;;;;;;;;;;;;;;5099076;22;19924;-75
2022/03/17 17:14:22;;;;;;;;;;;;;;;;;;4944905;22;3243632;-82
2022/03/17 17:16:49;;;;;;;;;;;;;;;;;;5042521;28;19910;-81
2022/03/17 17:19:15;;;;;;;;;;;;;;;;;;5041704;28;19916;-84
2022/03/17 17:21:41;;;;;;;;;;;;;;;;;;5043018;28;19927;-84
2022/03/17 17:32:24;;;;;;;;;;;;;;;;;;5041881;28;19921;-81
2022/03/17 17:34:50;;;;;;;;;;;;;;;;;;5025496;28;20292;-83
2022/03/17 17:37:16;;;;;;;;;;;;;;;;;;5007610;28;20303;-83
2022/03/17 17:39:43;;;;;;;;;;;;;;;;;;5024119;28;19916;-81
2022/03/17 17:42:11;;;;;;;;;;;;;;;;;;5023040;28;19910;-81
2022/03/17 17:44:37;;;;;;;;;;;;;;;;;;5041233;28;19932;-83
2022/03/17 17:47:04;;;;;;;;;;;;;;;;;;5007055;28;19913;-83
2022/03/17 17:49:29;;;;;;;;;;;;;;;;;;5042014;28;20292;-83
2022/03/17 17:51:55;;;;;;;;;;;;;;;;;;5041219;28;19923;-83
2022/03/17 17:54:21;;;;;;;;;;;;;;;;;;5006541;28;19913;-83
2022/03/17 17:56:47;;;;;;;;;;;;;;;;;;5040807;28;19941;-83
2022/03/17 17:59:12;;;;;;;;;;;;;;;;;;5023355;28;20331;-83
2022/03/17 18:01:39;;;;;;;;;;;;;;;;;;5022778;28;19910;-83
2022/03/17 18:04:05;;;;;;;;;;;;;;;;;;5041354;28;19916;-81
2022/03/17 18:06:31;;;;;;;;;;;;;;;;;;5022743;28;20000;-81
2022/03/17 18:08:56;;;;;;;;;;;;;;;;;;5006833;28;19913;-83
2022/03/17 18:11:22;;;;;;;;;;;;;;;;;;5022978;28;19984;-83
2022/03/17 18:13:48;;;;;;;;;;;;;;;;;;5039345;28;19917;-83
2022/03/17 18:16:14;;;;;;;;;;;;;;;;;;5038578;28;19913;-82
2022/03/17 18:18:41;;;;;;;;;;;;;;;;;;5038501;28;19913;-82
2022/03/17 18:21:07;;;;;;;;;;;;;;;;;;5045533;28;19932;-83
2022/03/17 18:23:32;;;;;;;;;;;;;;;;;;5023253;28;19909;-83
2022/03/17 18:25:58;;;;;;;;;;;;;;;;;;5022553;28;19916;-83
2022/03/17 18:28:24;;;;;;;;;;;;;;;;;;5008051;28;19909;-83
2022/03/17 18:30:50;;;;;;;;;;;;;;;;;;5040191;28;19917;-83
2022/03/17 18:33:16;;;;;;;;;;;;;;;;;;5005965;28;20266;-83
2022/03/17 18:35:42;;;;;;;;;;;;;;;;;;5007098;28;19995;-83
2022/03/17 18:38:08;;;;;;;;;;;;;;;;;;5023266;28;19909;-83
2022/03/17 18:40:34;;;;;;;;;;;;;;;;;;5039745;28;19920;-82
2022/03/17 18:42:59;;;;;;;;;;;;;;;;;;5041695;28;19910;-83
2022/03/17 18:45:25;;;;;;;;;;;;;;;;;;5022374;28;19915;-82
2022/03/17 18:47:51;;;;;;;;;;;;;;;;;;5006293;28;19952;-83
2022/03/17 18:50:17;;;;;;;;;;;;;;;;;;5007240;28;19909;-83
2022/03/17 18:52:43;;;;;;;;;;;;;;;;;;5022003;28;19920;-83
2022/03/17 18:55:08;;;;;;;;;;;;;;;;;;5021505;28;19909;-84
2022/03/17 18:57:34;;;;;;;;;;;;;;;;;;5022610;28;19916;-83
2022/03/17 19:00:00;;;;;;;;;;;;;;;;;;5005971;28;19910;-83
2022/03/17 19:02:25;;;;;;;;;;;;;;;;;;5038738;28;20386;-84
2022/03/17 19:04:51;;;;;;;;;;;;;;;;;;5022307;28;19999;-84
2022/03/17 19:07:17;;;;;;;;;;;;;;;;;;5021872;28;19913;-85
2022/03/17 19:09:43;;;;;;;;;;;;;;;;;;5039036;28;19935;-84
2022/03/17 19:12:08;;;;;;;;;;;;;;;;;;5039101;28;19964;-85
2022/03/17 19:14:34;;;;;;;;;;;;;;;;;;5005102;28;20300;-86
2022/03/17 19:17:01;;;;;;;;;;;;;;;;;;5021292;28;19956;-86
2022/03/17 19:19:27;;;;;;;;;;;;;;;;;;5004944;28;19945;-86
2022/03/17 19:21:52;;;;;;;;;;;;;;;;;;5021650;28;20263;-84
2022/03/17 19:24:18;;;;;;;;;;;;;;;;;;5039390;28;19916;-85
2022/03/17 19:26:44;;;;;;;;;;;;;;;;;;5038622;28;19910;-86
2022/03/17 19:29:10;;;;;;;;;;;;;;;;;;5039610;28;19909;-84
2022/03/17 19:31:35;;;;;;;;;;;;;;;;;;5038473;28;19940;-86
2022/03/17 19:34:01;;;;;;;;;;;;;;;;;;5003729;28;19948;-85
2022/03/17 19:36:27;;;;;;;;;;;;;;;;;;5007197;28;19925;-88
2022/03/17 19:38:53;;;;;;;;;;;;;;;;;;5021486;28;19936;-88
2022/03/17 19:41:21;;;;;;;;;;;;;;;;;;5021573;28;19932;-88
2022/03/17 19:43:48;;;;;;;;;;;;;;;;;;5005649;28;19909;-88
2022/03/17 20:13:48;;;;;;;;;;;;;;;;;;5070280;28;19928;-73
2022/03/17 20:16:17;;;;;;;;;;;;;;;;;;5042367;28;19908;-72
2022/03/17 20:18:43;;;;;;;;;;;;;;;;;;5042809;28;19913;-72
2022/03/17 20:21:09;;;;;;;;;;;;;;;;;;5042194;28;19915;-73
2022/03/17 20:23:35;;;;;;;;;;;;;;;;;;5074119;28;20338;-73
2022/03/17 20:26:03;;;;;;;;;;;;;;;;;;5036077;28;19912;-73
2022/03/17 20:28:30;;;;;;;;;;;;;;;;;;5057804;28;19947;-73
2022/03/17 20:30:55;;;;;;;;;;;;;;;;;;5040277;28;20334;-73
2022/03/17 20:33:23;;;;;;;;;;;;;;;;;;5053888;28;19951;-72
2022/03/17 20:35:49;;;;;;;;;;;;;;;;;;5037344;28;19908;-72
2022/03/17 20:38:15;;;;;;;;;;;;;;;;;;5059899;28;19909;-72
2022/03/17 20:40:53;;;;;;;;;;;;;;;;;;5062985;28;19912;-73
2022/03/17 20:43:19;;;;;;;;;;;;;;;;;;5046255;28;19954;-73
2022/03/17 20:45:51;;;;;;;;;;;;;;;;;;5042851;28;19908;-73
2022/03/17 20:48:16;;;;;;;;;;;;;;;;;;5040419;28;20043;-74
2022/03/17 20:50:44;;;;;;;;;;;;;;;;;;5033972;28;20018;-74
2022/03/17 20:53:13;;;;;;;;;;;;;;;;;;5043255;28;20313;-73
2022/03/17 20:55:39;;;;;;;;;;;;;;;;;;5042435;28;19959;-73
2022/03/17 20:58:11;;;;;;;;;;;;;;;;;;5040940;28;20223;-74
2022/03/17 21:00:37;;;;;;;;;;;;;;;;;;5068464;28;19908;-73
2022/03/17 21:03:04;;;;;;;;;;;;;;;;;;5057060;28;20102;-73
2022/03/17 21:05:29;;;;;;;;;;;;;;;;;;5076415;28;20260;-73
2022/03/17 21:07:56;;;;;;;;;;;;;;;;;;5059417;28;19908;-74
2022/03/17 21:10:23;;;;;;;;;;;;;;;;;;5042537;28;20076;-73
2022/03/17 21:12:49;;;;;;;;;;;;;;;;;;5041877;28;20230;-73
2022/03/17 21:15:18;;;;;;;;;;;;;;;;;;5044745;28;19909;-73
2022/03/17 21:17:46;;;;;;;;;;;;;;;;;;5039933;28;19908;-73
2022/03/17 21:20:13;;;;;;;;;;;;;;;;;;5060194;28;19916;-72
2022/03/17 21:22:42;;;;;;;;;;;;;;;;;;5041881;28;19943;-74
2022/03/17 21:25:23;;;;;;;;;;;;;;;;;;5041985;28;19908;-73
2022/03/17 21:27:50;;;;;;;;;;;;;;;;;;5058310;28;19915;-74
2022/03/17 21:30:16;;;;;;;;;;;;;;;;;;5060512;28;19948;-72
2022/03/17 21:32:45;;;;;;;;;;;;;;;;;;5036748;28;20222;-73
2022/03/17 21:35:13;;;;;;;;;;;;;;;;;;5042311;28;19908;-74
2022/03/17 21:37:38;;;;;;;;;;;;;;;;;;5038308;28;19909;-73
2022/03/17 21:40:05;;;;;;;;;;;;;;;;;;5042663;28;19916;-73
2022/03/17 21:42:32;;;;;;;;;;;;;;;;;;5059522;28;19944;-73
2022/03/17 21:45:00;;;;;;;;;;;;;;;;;;5041107;28;19913;-74
2022/03/17 21:47:26;;;;;;;;;;;;;;;;;;5043908;28;19909;-73
2022/03/17 21:49:52;;;;;;;;;;;;;;;;;;5056964;28;19915;-73
2022/03/17 21:52:18;;;;;;;;;;;;;;;;;;5039165;28;19917;-73
2022/03/17 21:54:45;;;;;;;;;;;;;;;;;;5041272;28;19915;-74
2022/03/17 21:57:11;;;;;;;;;;;;;;;;;;5056950;28;19908;-74
2022/03/17 21:59:37;;;;;;;;;;;;;;;;;;5058925;28;19915;-72
2022/03/17 22:02:04;;;;;;;;;;;;;;;;;;5033617;28;19909;-73
2022/03/17 22:04:30;;;;;;;;;;;;;;;;;;5052376;28;19915;-74
2022/03/17 22:06:57;;;;;;;;;;;;;;;;;;5043304;28;20211;-73
2022/03/17 22:09:23;;;;;;;;;;;;;;;;;;5059198;28;19913;-73
2022/03/17 22:11:48;;;;;;;;;;;;;;;;;;5060640;28;19943;-72
2022/03/17 22:14:17;;;;;;;;;;;;;;;;;;5040587;28;20295;-73
2022/03/17 22:16:43;;;;;;;;;;;;;;;;;;5057756;28;19912;-73
2022/03/17 22:19:10;;;;;;;;;;;;;;;;;;5058707;28;20275;-74
2022/03/17 22:21:37;;;;;;;;;;;;;;;;;;5040773;28;19917;-73
2022/03/17 22:24:03;;;;;;;;;;;;;;;;;;5052963;22;19924;-74
2022/03/17 22:26:33;;;;;;;;;;;;;;;;;;5038631;28;19999;-74
2022/03/17 22:29:03;;;;;;;;;;;;;;;;;;5040006;28;19913;-73
2022/03/17 22:31:33;;;;;;;;;;;;;;;;;;5037134;28;20196;-73
2022/03/17 22:34:08;;;;;;;;;;;;;;;;;;5027094;28;20299;-75
2022/03/17 22:36:38;;;;;;;;;;;;;;;;;;5050755;28;20231;-73
2022/03/17 22:39:07;;;;;;;;;;;;;;;;;;5033357;28;19943;-75
2022/03/17 22:41:33;;;;;;;;;;;;;;;;;;5032301;28;19909;-74
2022/03/17 22:44:03;;;;;;;;;;;;;;;;;;5050831;22;19909;-74
2022/03/17 22:46:30;;;;;;;;;;;;;;;;;;5023063;28;19970;-73
2022/03/17 22:48:56;;;;;;;;;;;;;;;;;;5054012;28;20376;-73
2022/03/17 22:51:26;;;;;;;;;;;;;;;;;;5039426;28;19923;-73
2022/03/17 22:53:53;;;;;;;;;;;;;;;;;;5043067;22;20364;-74
2022/03/17 23:01:16;;;;;;;;;;;;;;;;;;5065922;28;20319;-73
2022/03/17 23:03:43;;;;;;;;;;;;;;;;;;5056387;28;19909;-73
2022/03/17 23:06:14;;;;;;;;;;;;;;;;;;5047172;28;20218;-73
2022/03/17 23:08:51;;;;;;;;;;;;;;;;;;5010066;28;19925;-73
2022/03/17 23:11:17;;;;;;;;;;;;;;;;;;5059815;22;20390;-74
2022/03/17 23:13:46;;;;;;;;;;;;;;;;;;5048360;22;20412;-74
2022/03/17 23:16:16;;;;;;;;;;;;;;;;;;5028198;23;20015;-74
2022/03/17 23:18:56;;;;;;;;;;;;;;;;;;5059220;28;19925;-73
2022/03/17 23:24:18;;;;;;;;;;;;;;;;;;5064765;28;19925;-75
2022/03/17 23:29:27;;;;;;;;;;;;;;;;;;5057345;22;19924;-74
2022/03/17 23:31:57;;;;;;;;;;;;;;;;;;5022058;28;19917;-75
2022/03/17 23:34:35;;;;;;;;;;;;;;;;;;5071567;22;19956;-72
2022/03/17 23:37:36;;;;;;;;;;;;;;;;;;5077108;22;19924;-74
2022/03/17 23:45:17;;;;;;;;;;;;;;;;;;5075107;22;20023;-74
2022/03/17 23:50:34;;;;;;;;;;;;;;;;;;5060013;22;19925;-73
